sensor_id;sensor_type;location;lat;lon;timestamp;P1;durP1;ratioP1;P2;durP2;ratioP2
39600;SDS011;25297;44.758;11.310;2023-03-09T00:00:32;23.38;;;14.77;;
39600;SDS011;25297;44.758;11.310;2023-03-09T00:03:00;24.20;;;15.13;;
39600;SDS011;25297;44.758;11.310;2023-03-09T00:05:26;23.15;;;14.80;;
39600;SDS011;25297;44.758;11.310;2023-03-09T00:07:52;24.85;;;15.75;;
39600;SDS011;25297;44.758;11.310;2023-03-09T00:10:19;22.90;;;14.05;;
39600;SDS011;25297;44.758;11.310;2023-03-09T00:12:45;26.15;;;15.02;;
39600;SDS011;25297;44.758;11.310;2023-03-09T00:15:11;22.63;;;15.15;;
39600;SDS011;25297;44.758;11.310;2023-03-09T00:17:37;24.13;;;14.40;;
39600;SDS011;25297;44.758;11.310;2023-03-09T00:20:03;21.38;;;14.68;;
39600;SDS011;25297;44.758;11.310;2023-03-09T00:22:52;22.00;;;15.05;;
39600;SDS011;25297;44.758;11.310;2023-03-09T00:25:19;19.67;;;13.77;;
39600;SDS011;25297;44.758;11.310;2023-03-09T00:27:50;23.63;;;14.75;;
39600;SDS011;25297;44.758;11.310;2023-03-09T00:30:17;22.63;;;14.87;;
39600;SDS011;25297;44.758;11.310;2023-03-09T00:32:44;25.70;;;15.30;;
39600;SDS011;25297;44.758;11.310;2023-03-09T00:35:10;20.80;;;14.13;;
39600;SDS011;25297;44.758;11.310;2023-03-09T00:37:37;18.35;;;13.85;;
39600;SDS011;25297;44.758;11.310;2023-03-09T00:40:04;25.90;;;14.32;;
39600;SDS011;25297;44.758;11.310;2023-03-09T00:42:35;22.63;;;15.15;;
39600;SDS011;25297;44.758;11.310;2023-03-09T00:45:02;21.40;;;14.35;;
39600;SDS011;25297;44.758;11.310;2023-03-09T00:47:29;25.10;;;15.85;;
39600;SDS011;25297;44.758;11.310;2023-03-09T00:49:54;25.42;;;15.68;;
39600;SDS011;25297;44.758;11.310;2023-03-09T00:52:20;24.17;;;14.65;;
39600;SDS011;25297;44.758;11.310;2023-03-09T00:54:46;23.55;;;14.95;;
39600;SDS011;25297;44.758;11.310;2023-03-09T00:57:11;27.90;;;16.10;;
39600;SDS011;25297;44.758;11.310;2023-03-09T00:59:37;23.70;;;15.93;;
39600;SDS011;25297;44.758;11.310;2023-03-09T01:02:03;22.75;;;15.18;;
39600;SDS011;25297;44.758;11.310;2023-03-09T01:04:28;22.73;;;15.00;;
39600;SDS011;25297;44.758;11.310;2023-03-09T01:06:54;26.95;;;16.38;;
39600;SDS011;25297;44.758;11.310;2023-03-09T01:09:20;22.85;;;15.88;;
39600;SDS011;25297;44.758;11.310;2023-03-09T01:11:46;25.60;;;16.17;;
39600;SDS011;25297;44.758;11.310;2023-03-09T01:14:11;26.13;;;15.70;;
39600;SDS011;25297;44.758;11.310;2023-03-09T01:16:37;21.45;;;14.90;;
39600;SDS011;25297;44.758;11.310;2023-03-09T01:19:02;23.25;;;15.48;;
39600;SDS011;25297;44.758;11.310;2023-03-09T01:21:28;26.55;;;16.27;;
39600;SDS011;25297;44.758;11.310;2023-03-09T01:23:54;29.80;;;16.38;;
39600;SDS011;25297;44.758;11.310;2023-03-09T01:26:19;25.60;;;15.95;;
39600;SDS011;25297;44.758;11.310;2023-03-09T01:28:46;24.10;;;16.67;;
39600;SDS011;25297;44.758;11.310;2023-03-09T01:31:13;23.08;;;15.23;;
39600;SDS011;25297;44.758;11.310;2023-03-09T01:33:40;20.33;;;12.75;;
39600;SDS011;25297;44.758;11.310;2023-03-09T01:36:08;21.15;;;12.25;;
39600;SDS011;25297;44.758;11.310;2023-03-09T01:38:37;22.65;;;13.90;;
39600;SDS011;25297;44.758;11.310;2023-03-09T01:41:03;20.67;;;12.70;;
39600;SDS011;25297;44.758;11.310;2023-03-09T01:43:34;21.02;;;13.48;;
39600;SDS011;25297;44.758;11.310;2023-03-09T01:49:28;20.52;;;12.52;;
39600;SDS011;25297;44.758;11.310;2023-03-09T01:52:12;18.55;;;12.75;;
39600;SDS011;25297;44.758;11.310;2023-03-09T01:55:01;21.05;;;13.65;;
39600;SDS011;25297;44.758;11.310;2023-03-09T01:57:39;20.50;;;13.70;;
39600;SDS011;25297;44.758;11.310;2023-03-09T02:00:24;22.15;;;14.48;;
39600;SDS011;25297;44.758;11.310;2023-03-09T02:02:51;22.80;;;14.77;;
39600;SDS011;25297;44.758;11.310;2023-03-09T02:07:49;19.00;;;14.38;;
39600;SDS011;25297;44.758;11.310;2023-03-09T02:10:30;22.60;;;14.68;;
39600;SDS011;25297;44.758;11.310;2023-03-09T02:13:09;20.10;;;13.77;;
39600;SDS011;25297;44.758;11.310;2023-03-09T02:15:40;24.33;;;12.52;;
39600;SDS011;25297;44.758;11.310;2023-03-09T02:18:06;22.15;;;13.68;;
39600;SDS011;25297;44.758;11.310;2023-03-09T02:23:28;22.92;;;14.38;;
39600;SDS011;25297;44.758;11.310;2023-03-09T02:26:38;23.80;;;14.13;;
39600;SDS011;25297;44.758;11.310;2023-03-09T02:28:47;19.38;;;13.68;;
39600;SDS011;25297;44.758;11.310;2023-03-09T02:31:13;22.25;;;14.70;;
39600;SDS011;25297;44.758;11.310;2023-03-09T02:33:39;22.60;;;15.48;;
39600;SDS011;25297;44.758;11.310;2023-03-09T02:36:06;19.25;;;13.80;;
39600;SDS011;25297;44.758;11.310;2023-03-09T02:38:32;19.55;;;13.90;;
39600;SDS011;25297;44.758;11.310;2023-03-09T02:40:58;20.73;;;13.43;;
39600;SDS011;25297;44.758;11.310;2023-03-09T02:46:22;19.92;;;13.25;;
39600;SDS011;25297;44.758;11.310;2023-03-09T02:48:48;21.42;;;14.43;;
39600;SDS011;25297;44.758;11.310;2023-03-09T02:51:14;22.75;;;14.95;;
39600;SDS011;25297;44.758;11.310;2023-03-09T02:53:40;22.13;;;14.05;;
39600;SDS011;25297;44.758;11.310;2023-03-09T02:56:06;20.02;;;14.43;;
39600;SDS011;25297;44.758;11.310;2023-03-09T02:58:32;20.38;;;14.10;;
39600;SDS011;25297;44.758;11.310;2023-03-09T03:00:57;18.40;;;13.93;;
39600;SDS011;25297;44.758;11.310;2023-03-09T03:03:23;17.70;;;12.88;;
39600;SDS011;25297;44.758;11.310;2023-03-09T03:05:49;19.80;;;13.82;;
39600;SDS011;25297;44.758;11.310;2023-03-09T03:08:15;17.35;;;13.55;;
39600;SDS011;25297;44.758;11.310;2023-03-09T03:10:41;20.83;;;14.20;;
39600;SDS011;25297;44.758;11.310;2023-03-09T03:13:07;20.30;;;13.73;;
39600;SDS011;25297;44.758;11.310;2023-03-09T03:15:33;16.45;;;12.68;;
39600;SDS011;25297;44.758;11.310;2023-03-09T03:17:58;23.85;;;13.00;;
39600;SDS011;25297;44.758;11.310;2023-03-09T03:20:24;18.08;;;12.32;;
39600;SDS011;25297;44.758;11.310;2023-03-09T03:22:50;18.40;;;12.15;;
39600;SDS011;25297;44.758;11.310;2023-03-09T03:25:16;16.58;;;11.25;;
39600;SDS011;25297;44.758;11.310;2023-03-09T03:27:42;18.48;;;12.95;;
39600;SDS011;25297;44.758;11.310;2023-03-09T03:30:08;23.65;;;13.88;;
39600;SDS011;25297;44.758;11.310;2023-03-09T03:32:36;18.33;;;12.52;;
39600;SDS011;25297;44.758;11.310;2023-03-09T03:35:01;15.95;;;12.88;;
39600;SDS011;25297;44.758;11.310;2023-03-09T03:37:27;18.00;;;11.70;;
39600;SDS011;25297;44.758;11.310;2023-03-09T03:39:54;20.27;;;11.82;;
39600;SDS011;25297;44.758;11.310;2023-03-09T03:42:20;15.73;;;11.32;;
39600;SDS011;25297;44.758;11.310;2023-03-09T03:44:46;18.40;;;11.32;;
39600;SDS011;25297;44.758;11.310;2023-03-09T03:47:11;16.92;;;11.85;;
39600;SDS011;25297;44.758;11.310;2023-03-09T03:49:37;17.08;;;11.45;;
39600;SDS011;25297;44.758;11.310;2023-03-09T03:52:02;16.58;;;11.55;;
39600;SDS011;25297;44.758;11.310;2023-03-09T03:54:28;17.48;;;12.75;;
39600;SDS011;25297;44.758;11.310;2023-03-09T03:56:54;15.50;;;11.48;;
39600;SDS011;25297;44.758;11.310;2023-03-09T03:59:20;18.52;;;13.52;;
39600;SDS011;25297;44.758;11.310;2023-03-09T04:01:46;19.88;;;12.23;;
39600;SDS011;25297;44.758;11.310;2023-03-09T04:04:12;16.45;;;12.07;;
39600;SDS011;25297;44.758;11.310;2023-03-09T04:06:37;16.33;;;11.75;;
39600;SDS011;25297;44.758;11.310;2023-03-09T04:09:03;17.45;;;10.63;;
39600;SDS011;25297;44.758;11.310;2023-03-09T04:11:30;17.17;;;11.85;;
39600;SDS011;25297;44.758;11.310;2023-03-09T04:13:55;18.45;;;11.85;;
39600;SDS011;25297;44.758;11.310;2023-03-09T04:16:21;19.77;;;11.73;;
39600;SDS011;25297;44.758;11.310;2023-03-09T04:18:47;21.55;;;10.82;;
39600;SDS011;25297;44.758;11.310;2023-03-09T04:21:13;15.80;;;11.77;;
39600;SDS011;25297;44.758;11.310;2023-03-09T04:23:38;17.52;;;10.90;;
39600;SDS011;25297;44.758;11.310;2023-03-09T04:26:05;17.05;;;11.20;;
39600;SDS011;25297;44.758;11.310;2023-03-09T04:28:31;20.80;;;12.27;;
39600;SDS011;25297;44.758;11.310;2023-03-09T04:30:56;17.88;;;11.52;;
39600;SDS011;25297;44.758;11.310;2023-03-09T04:33:22;17.80;;;11.90;;
39600;SDS011;25297;44.758;11.310;2023-03-09T04:35:48;19.23;;;12.30;;
39600;SDS011;25297;44.758;11.310;2023-03-09T04:38:14;19.35;;;12.30;;
39600;SDS011;25297;44.758;11.310;2023-03-09T04:40:39;22.13;;;12.90;;
39600;SDS011;25297;44.758;11.310;2023-03-09T04:43:05;23.65;;;12.75;;
39600;SDS011;25297;44.758;11.310;2023-03-09T04:45:32;21.08;;;12.32;;
39600;SDS011;25297;44.758;11.310;2023-03-09T04:47:57;20.30;;;11.65;;
39600;SDS011;25297;44.758;11.310;2023-03-09T04:50:24;18.35;;;11.35;;
39600;SDS011;25297;44.758;11.310;2023-03-09T04:52:50;19.65;;;11.93;;
39600;SDS011;25297;44.758;11.310;2023-03-09T04:55:16;15.57;;;11.40;;
39600;SDS011;25297;44.758;11.310;2023-03-09T04:57:42;17.88;;;11.75;;
39600;SDS011;25297;44.758;11.310;2023-03-09T05:00:08;19.00;;;12.25;;
39600;SDS011;25297;44.758;11.310;2023-03-09T05:02:36;18.38;;;11.88;;
39600;SDS011;25297;44.758;11.310;2023-03-09T05:05:03;19.13;;;11.52;;
39600;SDS011;25297;44.758;11.310;2023-03-09T05:07:29;17.05;;;11.82;;
39600;SDS011;25297;44.758;11.310;2023-03-09T05:09:55;16.45;;;11.77;;
39600;SDS011;25297;44.758;11.310;2023-03-09T05:12:21;18.20;;;11.38;;
39600;SDS011;25297;44.758;11.310;2023-03-09T05:14:46;18.90;;;12.30;;
39600;SDS011;25297;44.758;11.310;2023-03-09T05:17:12;19.20;;;11.73;;
39600;SDS011;25297;44.758;11.310;2023-03-09T05:19:37;17.80;;;12.32;;
39600;SDS011;25297;44.758;11.310;2023-03-09T05:22:03;18.05;;;11.60;;
39600;SDS011;25297;44.758;11.310;2023-03-09T05:24:30;16.40;;;12.35;;
39600;SDS011;25297;44.758;11.310;2023-03-09T05:26:55;16.95;;;11.68;;
39600;SDS011;25297;44.758;11.310;2023-03-09T05:29:21;20.95;;;13.68;;
39600;SDS011;25297;44.758;11.310;2023-03-09T05:31:46;18.90;;;12.52;;
39600;SDS011;25297;44.758;11.310;2023-03-09T05:34:12;19.40;;;13.50;;
39600;SDS011;25297;44.758;11.310;2023-03-09T05:36:38;20.80;;;13.60;;
39600;SDS011;25297;44.758;11.310;2023-03-09T05:39:04;20.27;;;13.10;;
39600;SDS011;25297;44.758;11.310;2023-03-09T05:41:29;21.65;;;12.82;;
39600;SDS011;25297;44.758;11.310;2023-03-09T05:43:55;18.65;;;13.73;;
39600;SDS011;25297;44.758;11.310;2023-03-09T05:46:24;23.23;;;13.65;;
39600;SDS011;25297;44.758;11.310;2023-03-09T05:48:49;22.17;;;13.75;;
39600;SDS011;25297;44.758;11.310;2023-03-09T05:51:15;21.52;;;13.88;;
39600;SDS011;25297;44.758;11.310;2023-03-09T05:53:41;23.20;;;14.02;;
39600;SDS011;25297;44.758;11.310;2023-03-09T05:56:07;21.92;;;13.85;;
39600;SDS011;25297;44.758;11.310;2023-03-09T05:58:33;19.13;;;13.00;;
39600;SDS011;25297;44.758;11.310;2023-03-09T06:00:58;21.50;;;12.65;;
39600;SDS011;25297;44.758;11.310;2023-03-09T06:03:24;23.52;;;12.77;;
39600;SDS011;25297;44.758;11.310;2023-03-09T06:05:57;24.08;;;13.43;;
39600;SDS011;25297;44.758;11.310;2023-03-09T06:08:24;20.05;;;12.20;;
39600;SDS011;25297;44.758;11.310;2023-03-09T06:10:50;21.17;;;11.95;;
39600;SDS011;25297;44.758;11.310;2023-03-09T06:13:16;33.22;;;14.70;;
39600;SDS011;25297;44.758;11.310;2023-03-09T06:15:41;19.45;;;13.05;;
39600;SDS011;25297;44.758;11.310;2023-03-09T06:18:07;21.13;;;12.52;;
39600;SDS011;25297;44.758;11.310;2023-03-09T06:20:33;17.48;;;11.27;;
39600;SDS011;25297;44.758;11.310;2023-03-09T06:22:59;22.02;;;13.23;;
39600;SDS011;25297;44.758;11.310;2023-03-09T06:25:24;27.95;;;17.52;;
39600;SDS011;25297;44.758;11.310;2023-03-09T06:27:50;22.63;;;16.15;;
39600;SDS011;25297;44.758;11.310;2023-03-09T06:30:15;23.00;;;13.35;;
39600;SDS011;25297;44.758;11.310;2023-03-09T06:32:41;21.35;;;12.50;;
39600;SDS011;25297;44.758;11.310;2023-03-09T06:35:07;26.48;;;13.00;;
39600;SDS011;25297;44.758;11.310;2023-03-09T06:37:32;19.98;;;12.63;;
39600;SDS011;25297;44.758;11.310;2023-03-09T06:39:58;22.73;;;13.20;;
39600;SDS011;25297;44.758;11.310;2023-03-09T06:42:24;28.17;;;18.80;;
39600;SDS011;25297;44.758;11.310;2023-03-09T06:44:49;23.80;;;14.80;;
39600;SDS011;25297;44.758;11.310;2023-03-09T06:47:15;19.63;;;12.90;;
39600;SDS011;25297;44.758;11.310;2023-03-09T06:49:41;19.55;;;12.98;;
39600;SDS011;25297;44.758;11.310;2023-03-09T06:52:08;52.22;;;13.07;;
39600;SDS011;25297;44.758;11.310;2023-03-09T06:54:34;17.60;;;12.23;;
39600;SDS011;25297;44.758;11.310;2023-03-09T06:57:00;22.38;;;12.85;;
39600;SDS011;25297;44.758;11.310;2023-03-09T06:59:28;19.60;;;12.60;;
39600;SDS011;25297;44.758;11.310;2023-03-09T07:01:54;22.38;;;13.77;;
39600;SDS011;25297;44.758;11.310;2023-03-09T07:04:19;24.00;;;13.15;;
39600;SDS011;25297;44.758;11.310;2023-03-09T07:06:45;23.17;;;13.20;;
39600;SDS011;25297;44.758;11.310;2023-03-09T07:09:10;23.63;;;12.57;;
39600;SDS011;25297;44.758;11.310;2023-03-09T07:11:36;19.15;;;12.43;;
39600;SDS011;25297;44.758;11.310;2023-03-09T07:14:02;27.25;;;13.68;;
39600;SDS011;25297;44.758;11.310;2023-03-09T07:16:27;21.55;;;13.75;;
39600;SDS011;25297;44.758;11.310;2023-03-09T07:18:55;22.48;;;14.25;;
39600;SDS011;25297;44.758;11.310;2023-03-09T07:21:21;27.65;;;15.80;;
39600;SDS011;25297;44.758;11.310;2023-03-09T07:23:46;23.75;;;16.35;;
39600;SDS011;25297;44.758;11.310;2023-03-09T07:26:12;25.60;;;15.98;;
39600;SDS011;25297;44.758;11.310;2023-03-09T07:28:38;30.70;;;17.52;;
39600;SDS011;25297;44.758;11.310;2023-03-09T07:31:07;26.95;;;19.42;;
39600;SDS011;25297;44.758;11.310;2023-03-09T07:33:34;39.93;;;23.57;;
39600;SDS011;25297;44.758;11.310;2023-03-09T07:36:02;40.80;;;26.17;;
39600;SDS011;25297;44.758;11.310;2023-03-09T07:38:31;58.25;;;35.65;;
39600;SDS011;25297;44.758;11.310;2023-03-09T07:40:58;56.10;;;35.88;;
39600;SDS011;25297;44.758;11.310;2023-03-09T07:43:24;56.03;;;33.03;;
39600;SDS011;25297;44.758;11.310;2023-03-09T07:45:50;44.30;;;28.27;;
39600;SDS011;25297;44.758;11.310;2023-03-09T07:48:16;47.15;;;29.05;;
39600;SDS011;25297;44.758;11.310;2023-03-09T07:50:42;48.03;;;26.45;;
39600;SDS011;25297;44.758;11.310;2023-03-09T07:53:08;37.55;;;26.85;;
39600;SDS011;25297;44.758;11.310;2023-03-09T07:55:34;41.70;;;25.33;;
39600;SDS011;25297;44.758;11.310;2023-03-09T07:58:00;32.30;;;24.10;;
39600;SDS011;25297;44.758;11.310;2023-03-09T08:00:27;33.30;;;23.42;;
39600;SDS011;25297;44.758;11.310;2023-03-09T08:02:53;36.03;;;24.73;;
39600;SDS011;25297;44.758;11.310;2023-03-09T08:05:19;34.55;;;24.85;;
39600;SDS011;25297;44.758;11.310;2023-03-09T08:07:46;40.10;;;25.58;;
39600;SDS011;25297;44.758;11.310;2023-03-09T08:10:12;39.08;;;23.55;;
39600;SDS011;25297;44.758;11.310;2023-03-09T08:12:39;33.28;;;21.70;;
39600;SDS011;25297;44.758;11.310;2023-03-09T08:15:11;39.50;;;24.35;;
39600;SDS011;25297;44.758;11.310;2023-03-09T08:17:37;32.88;;;21.83;;
39600;SDS011;25297;44.758;11.310;2023-03-09T08:20:03;31.85;;;20.58;;
39600;SDS011;25297;44.758;11.310;2023-03-09T08:22:36;29.05;;;19.25;;
39600;SDS011;25297;44.758;11.310;2023-03-09T08:25:02;29.80;;;20.27;;
39600;SDS011;25297;44.758;11.310;2023-03-09T08:27:29;32.97;;;18.85;;
39600;SDS011;25297;44.758;11.310;2023-03-09T08:29:55;26.42;;;18.23;;
39600;SDS011;25297;44.758;11.310;2023-03-09T08:32:21;27.00;;;17.23;;
39600;SDS011;25297;44.758;11.310;2023-03-09T08:34:53;26.40;;;17.52;;
39600;SDS011;25297;44.758;11.310;2023-03-09T08:37:19;23.60;;;16.63;;
39600;SDS011;25297;44.758;11.310;2023-03-09T08:39:45;23.50;;;15.70;;
39600;SDS011;25297;44.758;11.310;2023-03-09T08:42:11;24.65;;;16.50;;
39600;SDS011;25297;44.758;11.310;2023-03-09T08:44:36;27.70;;;16.38;;
39600;SDS011;25297;44.758;11.310;2023-03-09T08:47:02;25.63;;;16.55;;
39600;SDS011;25297;44.758;11.310;2023-03-09T08:49:28;21.15;;;15.95;;
39600;SDS011;25297;44.758;11.310;2023-03-09T08:51:53;25.98;;;15.23;;
39600;SDS011;25297;44.758;11.310;2023-03-09T08:54:20;26.38;;;16.10;;
39600;SDS011;25297;44.758;11.310;2023-03-09T08:56:45;20.08;;;15.00;;
39600;SDS011;25297;44.758;11.310;2023-03-09T08:59:11;27.10;;;15.43;;
39600;SDS011;25297;44.758;11.310;2023-03-09T09:01:37;29.10;;;16.55;;
39600;SDS011;25297;44.758;11.310;2023-03-09T09:04:02;20.25;;;14.93;;
39600;SDS011;25297;44.758;11.310;2023-03-09T09:06:29;22.15;;;15.48;;
39600;SDS011;25297;44.758;11.310;2023-03-09T09:08:54;27.38;;;15.40;;
39600;SDS011;25297;44.758;11.310;2023-03-09T09:11:20;18.63;;;14.05;;
39600;SDS011;25297;44.758;11.310;2023-03-09T09:13:46;22.13;;;14.82;;
39600;SDS011;25297;44.758;11.310;2023-03-09T09:16:15;23.90;;;14.57;;
39600;SDS011;25297;44.758;11.310;2023-03-09T09:18:40;21.10;;;14.38;;
39600;SDS011;25297;44.758;11.310;2023-03-09T09:21:07;19.48;;;13.45;;
39600;SDS011;25297;44.758;11.310;2023-03-09T09:23:35;23.45;;;13.95;;
39600;SDS011;25297;44.758;11.310;2023-03-09T09:26:02;20.52;;;13.63;;
39600;SDS011;25297;44.758;11.310;2023-03-09T09:28:28;22.63;;;15.10;;
39600;SDS011;25297;44.758;11.310;2023-03-09T09:30:55;20.88;;;14.00;;
39600;SDS011;25297;44.758;11.310;2023-03-09T09:33:22;21.70;;;13.95;;
39600;SDS011;25297;44.758;11.310;2023-03-09T09:35:54;18.80;;;13.35;;
39600;SDS011;25297;44.758;11.310;2023-03-09T09:38:21;22.13;;;13.95;;
39600;SDS011;25297;44.758;11.310;2023-03-09T09:40:47;20.13;;;12.52;;
39600;SDS011;25297;44.758;11.310;2023-03-09T09:43:13;16.77;;;11.48;;
39600;SDS011;25297;44.758;11.310;2023-03-09T09:45:39;19.30;;;11.05;;
39600;SDS011;25297;44.758;11.310;2023-03-09T09:48:09;18.08;;;11.68;;
39600;SDS011;25297;44.758;11.310;2023-03-09T09:50:52;18.88;;;11.95;;
39600;SDS011;25297;44.758;11.310;2023-03-09T09:56:03;22.58;;;11.15;;
39600;SDS011;25297;44.758;11.310;2023-03-09T09:58:37;23.08;;;12.02;;
39600;SDS011;25297;44.758;11.310;2023-03-09T10:01:21;22.70;;;11.63;;
39600;SDS011;25297;44.758;11.310;2023-03-09T10:03:53;17.60;;;10.98;;
39600;SDS011;25297;44.758;11.310;2023-03-09T10:06:24;28.02;;;12.32;;
39600;SDS011;25297;44.758;11.310;2023-03-09T10:16:57;17.58;;;11.68;;
39600;SDS011;25297;44.758;11.310;2023-03-09T10:19:43;20.13;;;11.07;;
39600;SDS011;25297;44.758;11.310;2023-03-09T10:24:42;22.58;;;10.15;;
39600;SDS011;25297;44.758;11.310;2023-03-09T10:27:20;21.48;;;11.98;;
39600;SDS011;25297;44.758;11.310;2023-03-09T10:32:37;17.95;;;9.98;;
39600;SDS011;25297;44.758;11.310;2023-03-09T10:37:51;16.42;;;8.93;;
39600;SDS011;25297;44.758;11.310;2023-03-09T10:40:18;19.65;;;9.60;;
39600;SDS011;25297;44.758;11.310;2023-03-09T10:42:50;16.15;;;9.57;;
39600;SDS011;25297;44.758;11.310;2023-03-09T10:47:57;19.25;;;9.02;;
39600;SDS011;25297;44.758;11.310;2023-03-09T10:50:33;18.65;;;9.05;;
39600;SDS011;25297;44.758;11.310;2023-03-09T10:53:22;18.73;;;8.55;;
39600;SDS011;25297;44.758;11.310;2023-03-09T10:59:07;17.42;;;9.75;;
39600;SDS011;25297;44.758;11.310;2023-03-09T11:01:38;18.80;;;10.70;;
39600;SDS011;25297;44.758;11.310;2023-03-09T11:06:54;17.33;;;11.30;;
39600;SDS011;25297;44.758;11.310;2023-03-09T11:27:56;23.20;;;10.95;;
39600;SDS011;25297;44.758;11.310;2023-03-09T11:30:28;16.38;;;11.40;;
39600;SDS011;25297;44.758;11.310;2023-03-09T11:32:55;19.40;;;11.95;;
39600;SDS011;25297;44.758;11.310;2023-03-09T11:35:21;19.10;;;11.38;;
39600;SDS011;25297;44.758;11.310;2023-03-09T11:37:58;26.80;;;10.68;;
39600;SDS011;25297;44.758;11.310;2023-03-09T11:40:27;26.42;;;11.40;;
39600;SDS011;25297;44.758;11.310;2023-03-09T11:45:42;15.75;;;10.32;;
39600;SDS011;25297;44.758;11.310;2023-03-09T11:48:21;21.90;;;11.27;;
39600;SDS011;25297;44.758;11.310;2023-03-09T11:56:08;21.88;;;12.00;;
39600;SDS011;25297;44.758;11.310;2023-03-09T12:04:47;20.33;;;11.73;;
39600;SDS011;25297;44.758;11.310;2023-03-09T12:12:20;20.55;;;11.10;;
39600;SDS011;25297;44.758;11.310;2023-03-09T12:18:20;20.83;;;10.95;;
39600;SDS011;25297;44.758;11.310;2023-03-09T12:20:50;17.77;;;10.52;;
39600;SDS011;25297;44.758;11.310;2023-03-09T12:28:50;16.25;;;10.07;;
39600;SDS011;25297;44.758;11.310;2023-03-09T13:19:36;18.05;;;9.20;;
39600;SDS011;25297;44.758;11.310;2023-03-09T13:24:37;20.85;;;8.60;;
39600;SDS011;25297;44.758;11.310;2023-03-09T13:29:43;19.13;;;9.18;;
39600;SDS011;25297;44.758;11.310;2023-03-09T13:34:56;25.40;;;9.75;;
39600;SDS011;25297;44.758;11.310;2023-03-09T13:37:25;22.02;;;10.10;;
39600;SDS011;25297;44.758;11.310;2023-03-09T13:39:58;16.38;;;7.82;;
39600;SDS011;25297;44.758;11.310;2023-03-09T13:42:33;12.98;;;7.05;;
39600;SDS011;25297;44.758;11.310;2023-03-09T13:45:02;13.75;;;7.82;;
39600;SDS011;25297;44.758;11.310;2023-03-09T13:47:29;16.27;;;7.97;;
39600;SDS011;25297;44.758;11.310;2023-03-09T13:49:56;16.77;;;9.30;;
39600;SDS011;25297;44.758;11.310;2023-03-09T13:52:24;16.65;;;8.25;;
39600;SDS011;25297;44.758;11.310;2023-03-09T13:57:22;17.13;;;9.05;;
39600;SDS011;25297;44.758;11.310;2023-03-09T14:02:36;20.10;;;9.43;;
39600;SDS011;25297;44.758;11.310;2023-03-09T14:07:53;20.35;;;8.75;;
39600;SDS011;25297;44.758;11.310;2023-03-09T14:13:00;16.20;;;8.10;;
39600;SDS011;25297;44.758;11.310;2023-03-09T14:16:01;15.70;;;8.15;;
39600;SDS011;25297;44.758;11.310;2023-03-09T14:21:16;18.00;;;8.45;;
39600;SDS011;25297;44.758;11.310;2023-03-09T14:23:53;18.02;;;7.85;;
39600;SDS011;25297;44.758;11.310;2023-03-09T14:26:29;12.73;;;7.78;;
39600;SDS011;25297;44.758;11.310;2023-03-09T14:29:14;17.63;;;7.53;;
39600;SDS011;25297;44.758;11.310;2023-03-09T14:31:45;15.23;;;7.68;;
39600;SDS011;25297;44.758;11.310;2023-03-09T14:39:31;17.13;;;6.70;;
39600;SDS011;25297;44.758;11.310;2023-03-09T14:44:46;20.73;;;6.13;;
39600;SDS011;25297;44.758;11.310;2023-03-09T14:47:24;15.60;;;6.15;;
39600;SDS011;25297;44.758;11.310;2023-03-09T14:49:51;10.27;;;5.15;;
39600;SDS011;25297;44.758;11.310;2023-03-09T14:52:18;11.27;;;5.82;;
39600;SDS011;25297;44.758;11.310;2023-03-09T14:54:45;12.10;;;5.18;;
39600;SDS011;25297;44.758;11.310;2023-03-09T14:57:12;13.07;;;5.35;;
39600;SDS011;25297;44.758;11.310;2023-03-09T14:59:39;12.20;;;5.13;;
39600;SDS011;25297;44.758;11.310;2023-03-09T15:02:05;19.38;;;6.00;;
39600;SDS011;25297;44.758;11.310;2023-03-09T15:04:33;14.38;;;5.47;;
39600;SDS011;25297;44.758;11.310;2023-03-09T15:06:59;10.10;;;5.35;;
39600;SDS011;25297;44.758;11.310;2023-03-09T15:09:27;20.00;;;7.50;;
39600;SDS011;25297;44.758;11.310;2023-03-09T15:11:53;14.00;;;7.25;;
39600;SDS011;25297;44.758;11.310;2023-03-09T15:16:52;19.83;;;7.88;;
39600;SDS011;25297;44.758;11.310;2023-03-09T15:19:23;20.65;;;7.15;;
39600;SDS011;25297;44.758;11.310;2023-03-09T15:21:53;15.55;;;6.45;;
39600;SDS011;25297;44.758;11.310;2023-03-09T15:24:20;16.30;;;6.83;;
39600;SDS011;25297;44.758;11.310;2023-03-09T15:26:47;16.92;;;7.15;;
39600;SDS011;25297;44.758;11.310;2023-03-09T15:29:12;14.40;;;7.13;;
39600;SDS011;25297;44.758;11.310;2023-03-09T15:31:38;16.80;;;6.57;;
39600;SDS011;25297;44.758;11.310;2023-03-09T15:34:03;14.23;;;6.40;;
39600;SDS011;25297;44.758;11.310;2023-03-09T15:36:29;15.25;;;6.35;;
39600;SDS011;25297;44.758;11.310;2023-03-09T15:38:55;14.32;;;5.97;;
39600;SDS011;25297;44.758;11.310;2023-03-09T15:41:20;15.00;;;5.72;;
39600;SDS011;25297;44.758;11.310;2023-03-09T15:43:46;18.90;;;5.75;;
39600;SDS011;25297;44.758;11.310;2023-03-09T15:46:12;14.70;;;6.28;;
39600;SDS011;25297;44.758;11.310;2023-03-09T15:48:38;18.60;;;7.50;;
39600;SDS011;25297;44.758;11.310;2023-03-09T15:51:03;19.48;;;6.55;;
39600;SDS011;25297;44.758;11.310;2023-03-09T15:53:30;11.82;;;6.00;;
39600;SDS011;25297;44.758;11.310;2023-03-09T15:56:00;18.48;;;6.10;;
39600;SDS011;25297;44.758;11.310;2023-03-09T15:58:28;18.45;;;6.22;;
39600;SDS011;25297;44.758;11.310;2023-03-09T16:01:00;15.20;;;6.00;;
39600;SDS011;25297;44.758;11.310;2023-03-09T16:03:30;14.70;;;5.43;;
39600;SDS011;25297;44.758;11.310;2023-03-09T16:05:57;13.30;;;5.32;;
39600;SDS011;25297;44.758;11.310;2023-03-09T16:08:23;11.02;;;4.70;;
39600;SDS011;25297;44.758;11.310;2023-03-09T16:10:49;12.80;;;4.88;;
39600;SDS011;25297;44.758;11.310;2023-03-09T16:13:15;26.83;;;6.32;;
39600;SDS011;25297;44.758;11.310;2023-03-09T16:15:45;11.85;;;5.00;;
39600;SDS011;25297;44.758;11.310;2023-03-09T16:18:11;15.10;;;5.32;;
39600;SDS011;25297;44.758;11.310;2023-03-09T16:20:38;18.40;;;4.90;;
39600;SDS011;25297;44.758;11.310;2023-03-09T16:23:04;12.65;;;4.60;;
39600;SDS011;25297;44.758;11.310;2023-03-09T16:25:30;12.18;;;5.10;;
39600;SDS011;25297;44.758;11.310;2023-03-09T16:27:55;11.35;;;4.50;;
39600;SDS011;25297;44.758;11.310;2023-03-09T16:30:21;10.43;;;4.63;;
39600;SDS011;25297;44.758;11.310;2023-03-09T16:32:50;12.38;;;5.25;;
39600;SDS011;25297;44.758;11.310;2023-03-09T16:35:16;13.43;;;4.93;;
39600;SDS011;25297;44.758;11.310;2023-03-09T16:37:43;11.38;;;4.13;;
39600;SDS011;25297;44.758;11.310;2023-03-09T16:40:09;16.95;;;4.63;;
39600;SDS011;25297;44.758;11.310;2023-03-09T16:42:35;15.27;;;5.53;;
39600;SDS011;25297;44.758;11.310;2023-03-09T16:45:01;12.77;;;5.43;;
39600;SDS011;25297;44.758;11.310;2023-03-09T16:47:28;21.15;;;5.72;;
39600;SDS011;25297;44.758;11.310;2023-03-09T16:49:58;15.27;;;6.25;;
39600;SDS011;25297;44.758;11.310;2023-03-09T16:52:26;12.52;;;5.93;;
39600;SDS011;25297;44.758;11.310;2023-03-09T16:54:56;15.45;;;6.80;;
39600;SDS011;25297;44.758;11.310;2023-03-09T16:57:24;15.18;;;7.78;;
39600;SDS011;25297;44.758;11.310;2023-03-09T16:59:51;16.45;;;7.15;;